»·PEaware :: N16RD KPSP-KVNY

N16RD :: KPSP-KVNY

FLIGHT INFORMATION

Flight Status: Arrived
Operator: Privately registered:
United States
More flights under this callsign
Pilot: Brett B. (12105)
Aircraft: CESSNA 182 SKYLANE
(C182)
More flights by this aircraft type
Origin: KPSP Palm Springs Intl
United States
Destination: KVNY Van Nuys
United States
More flights between these airports :: More routes between these airports
Route: +CATH1 PSP V388 PDZ V186 VNY
File this flight plan on PilotEdge
Remarks: TEC PSPP1
Altitude:
(Current/Filed)
10,000ft
Speed:
(Current/Filed)
165kts
Departed: 07-May-19 06:42 PM
Arrived: 07-May-19 07:51 PM
Distance/Time
Traveled:
101nm/1:09
Distance/Time
To Go:
Arrived

Flight Plot

Page will automatically refresh every two minutes.


Map Options




Map Legend


Flown Route
Filed Route
Departure Airport
Arrival Airport
Navaid (VOR, NDB)
Fix

Horizontal Profiles

Position Reports

Time Latitude Longitude Heading Altitude Ground
Speed
07-May-19 17:53 33.822728 -116.506105 273 428ft 0kts
07-May-19 17:54 33.822728 -116.506105 273 428ft 0kts
07-May-19 17:55 33.822728 -116.506105 273 428ft 0kts
07-May-19 17:56 33.822728 -116.506105 273 428ft 0kts
07-May-19 17:57 33.822728 -116.506105 273 428ft 0kts
07-May-19 17:58 33.822728 -116.506105 273 428ft 0kts
07-May-19 17:59 33.822728 -116.506105 273 428ft 0kts
07-May-19 18:00 33.822728 -116.506105 273 428ft 0kts
07-May-19 18:01 33.822728 -116.506105 273 428ft 0kts
07-May-19 18:02 33.822728 -116.506105 273 428ft 0kts
07-May-19 18:03 33.822728 -116.506105 273 428ft 0kts
07-May-19 18:04 33.822728 -116.506105 273 428ft 0kts
07-May-19 18:05 33.822728 -116.506105 273 428ft 0kts
07-May-19 18:06 33.822728 -116.506105 273 428ft 0kts
07-May-19 18:07 33.822728 -116.506105 273 428ft 0kts
07-May-19 18:08 33.822728 -116.506105 273 428ft 0kts
07-May-19 18:09 33.822728 -116.506105 273 428ft 0kts
07-May-19 18:10 33.822728 -116.506105 273 428ft 0kts
07-May-19 18:11 33.822728 -116.506105 273 428ft 0kts
07-May-19 18:12 33.822728 -116.506105 273 428ft 0kts
07-May-19 18:13 33.822728 -116.506105 273 428ft 0kts
07-May-19 18:14 33.822728 -116.506105 273 428ft 0kts
07-May-19 18:15 33.822728 -116.506105 273 428ft 0kts
07-May-19 18:16 33.822728 -116.506105 273 428ft 0kts
07-May-19 18:17 33.822728 -116.506105 273 428ft 0kts
07-May-19 18:18 33.822728 -116.506105 273 428ft 0kts
07-May-19 18:19 33.822728 -116.506105 273 428ft 0kts
07-May-19 18:20 33.822728 -116.506105 273 428ft 0kts
07-May-19 18:21 33.822728 -116.506105 273 428ft 0kts
07-May-19 18:22 33.822728 -116.506105 273 428ft 0kts
07-May-19 18:23 33.822728 -116.506105 273 428ft 0kts
07-May-19 18:24 33.822728 -116.506105 273 428ft 0kts
07-May-19 18:25 33.822728 -116.506105 273 428ft 0kts
07-May-19 18:26 33.822728 -116.506105 273 428ft 0kts
07-May-19 18:27 33.822728 -116.506105 273 428ft 0kts
07-May-19 18:28 33.822728 -116.506105 273 428ft 0kts
07-May-19 18:29 33.822728 -116.506105 273 428ft 0kts
07-May-19 18:30 33.822728 -116.506105 273 428ft 0kts
07-May-19 18:31 33.822728 -116.506105 273 428ft 0kts
07-May-19 18:32 33.822728 -116.506105 273 428ft 0kts
07-May-19 18:33 33.822728 -116.506105 273 428ft 0kts
07-May-19 18:34 33.822728 -116.506105 273 428ft 0kts
07-May-19 18:35 33.822696 -116.506131 175 428ft 1kts
07-May-19 18:36 33.821877 -116.502568 142 428ft 29kts
07-May-19 18:37 33.817583 -116.497837 52 428ft 0kts
07-May-19 18:38 33.817583 -116.497837 52 428ft 0kts
07-May-19 18:39 33.817583 -116.497837 52 428ft 0kts
07-May-19 18:40 33.817989 -116.497403 344 428ft 4kts
07-May-19 18:41 33.831013 -116.507815 321 991ft 76kts
07-May-19 18:42 33.851851 -116.526892 315 1825ft 103kts
07-May-19 18:43 33.875495 -116.549753 313 2612ft 113kts
07-May-19 18:44 33.903309 -116.567626 23 3384ft 136kts
07-May-19 18:45 33.899930 -116.526619 116 4239ft 139kts
07-May-19 18:46 33.885940 -116.481987 114 5052ft 145kts
07-May-19 18:47 33.871373 -116.434014 115 5873ft 156kts
07-May-19 18:48 33.851893 -116.386914 121 6669ft 158kts
07-May-19 18:49 33.833103 -116.338715 97 7472ft 164kts
07-May-19 18:50 33.855856 -116.342241 275 8341ft 141kts
07-May-19 18:51 33.859985 -116.388753 281 9141ft 138kts
07-May-19 18:52 33.871187 -116.434698 285 9903ft 149kts
07-May-19 18:53 33.883666 -116.483713 286 10002ft 156kts
07-May-19 18:54 33.896639 -116.534704 286 10001ft 160kts
07-May-19 18:55 33.909891 -116.586906 286 9991ft 162kts
07-May-19 18:56 33.922921 -116.638350 286 10011ft 160kts
07-May-19 18:57 33.935466 -116.687962 286 10034ft 150kts
07-May-19 18:58 33.947376 -116.735508 283 10065ft 147kts
07-May-19 18:59 33.947028 -116.785276 268 10079ft 149kts
07-May-19 19:00 33.945186 -116.836404 268 10084ft 153kts
07-May-19 19:01 33.943376 -116.886226 269 10133ft 147kts
07-May-19 19:02 33.942277 -116.916492 269 10142ft 153kts
07-May-19 19:03 33.940423 -116.966742 269 10148ft 148kts
07-May-19 19:04 33.938552 -117.017061 269 9978ft 149kts
07-May-19 19:05 33.936681 -117.066716 269 9982ft 148kts
07-May-19 19:06 33.934789 -117.115969 269 9985ft 147kts
07-May-19 19:07 33.932872 -117.165264 269 9987ft 147kts
07-May-19 19:08 33.930955 -117.214516 269 9987ft 147kts
07-May-19 19:09 33.929015 -117.263942 269 9987ft 147kts
07-May-19 19:10 33.927058 -117.313258 270 9988ft 147kts
07-May-19 19:11 33.925096 -117.362249 270 9988ft 146kts
07-May-19 19:12 33.923110 -117.411388 270 9988ft 146kts
07-May-19 19:13 33.921111 -117.460330 270 9987ft 146kts
07-May-19 19:14 33.919110 -117.508745 270 9988ft 142kts
07-May-19 19:15 33.918757 -117.536044 287 9987ft 139kts
07-May-19 19:16 33.922684 -117.546469 297 9994ft 138kts
07-May-19 19:17 33.938736 -117.588801 294 9990ft 139kts
07-May-19 19:18 33.953953 -117.631358 294 9994ft 138kts
07-May-19 19:19 33.968970 -117.673860 294 9995ft 137kts
07-May-19 19:20 33.983415 -117.714876 294 9996ft 137kts
07-May-19 19:21 33.998321 -117.757270 294 10000ft 137kts
07-May-19 19:22 34.012493 -117.802427 289 10003ft 151kts
07-May-19 19:23 34.026795 -117.848765 289 10000ft 145kts
07-May-19 19:24 34.040958 -117.894675 289 9999ft 146kts
07-May-19 19:25 34.055174 -117.940648 289 9997ft 146kts
07-May-19 19:26 34.069359 -117.986701 289 9997ft 146kts
07-May-19 19:27 34.083153 -118.031580 292 9996ft 139kts
07-May-19 19:28 34.096483 -118.074985 292 9996ft 137kts
07-May-19 19:29 34.109812 -118.118476 291 9999ft 137kts
07-May-19 19:30 34.123088 -118.161853 291 9994ft 138kts
07-May-19 19:31 34.140849 -118.201559 319 9996ft 137kts
07-May-19 19:33 34.171363 -118.230248 320 9808ft 146kts
07-May-19 19:34 34.204837 -118.261810 320 9007ft 153kts
07-May-19 19:35 34.238350 -118.293538 320 8210ft 153kts
07-May-19 19:36 34.270952 -118.324579 320 7435ft 154kts
07-May-19 19:37 34.302844 -118.355084 320 6916ft 146kts
07-May-19 19:38 34.334636 -118.385548 320 6555ft 145kts
07-May-19 19:39 34.367381 -118.414521 330 6129ft 149kts
07-May-19 19:40 34.402586 -118.437514 330 6006ft 139kts
07-May-19 19:41 34.436451 -118.459638 326 6001ft 138kts
07-May-19 19:42 34.442193 -118.503448 259 6000ft 137kts
07-May-19 19:43 34.414583 -118.523486 200 5405ft 151kts
07-May-19 19:44 34.396907 -118.529625 188 5105ft 149kts
07-May-19 19:45 34.359116 -118.517307 151 4997ft 132kts
07-May-19 19:46 34.326639 -118.500728 174 4302ft 118kts
07-May-19 19:47 34.295311 -118.497263 178 3097ft 111kts
07-May-19 19:48 34.265364 -118.495336 176 2071ft 106kts
07-May-19 19:49 34.237077 -118.492953 176 1404ft 98kts
07-May-19 19:50 34.214823 -118.490876 174 809ft 59kts
07-May-19 19:51 34.209649 -118.492095 274 805ft 6kts

Navigation Log

Ident Type
Flight plan parsing failed, navigation log unavailable